Decoded Metar for YBTL (TOWNSVILLE in AUSTRALIA) (IATA:TSV) | Meteo·Mobile Aviation Weather
aviador You're here:

YBTL Decoded Metar

TOWNSVILLE in AUSTRALIA
Report Time2018-08-22 05:00:00
UTC Time2018-08-22 05:38:38
Flight Rules vfr VFR
Wind060° at 13 kt
W.Decomp.*RWY 07: 12.4 kt HW 4 kt LCW
RWY 01: 9.7 kt HW 8.7 kt RCW
W.Rank060° ranks 1
Current wind is above 060° avg. (11.9)
Visibility9999 m
Phenomena:N/A
Clouds:N/A
Expected CloudBase > 5,200 ft AGL from Temp-Dew spread
CeilingNone
Temp24°C (ISA +9)
Dew Point11°C (44% RH)
AAT19.6°C
QNH1014 hPa
Density Alt1,214 ft
Elevation20 ft
Report Wrong Elevation
Raw Report
METAR YBTL 220500Z 06013KT CAVOK 24/11 Q1014
NOSIG=

Extra information for YBTL:More info

Metar Taf Metar & Taf Last 4 Metars F.Rules Stats Wind Profile Meteogram Temp Stats Airport Information Weather charts Add Link Nearby VenuesMetar ALERT Operation Metar Decoded Social comments